Healdville, Vermont
Current Conditions -  °F | °C
As of 4:55 AM on Saturday 29 Nov 2014 (Local Time) from KRUT Reporting Station
Few Clouds Few Clouds  
Wind Chill: -3°   Ceiling: Unl
Heat Index:   Visibility: 10mi
Dew Point:   Wind: 7mph
Humidity: 85%   Direction: 130°SE
Pressure: 30.22"   Gusts: NA
Location:  43.437°N, 72.7883°W
Report Text: KRUT 290955Z 13006KT 10SM FEW049 M13/M15 A3022 RMK AO1
Loading
Personal Weather Stations






























Interactive Weather Map New forecast layout! Learn more

10-Day Weather Forecast

Advertisements
Track Severe Weather on mobile